createdAt,value
2019-03-24T00:01:59.064Z,9.42
2019-03-24T00:04:25.566Z,9.43
2019-03-24T00:06:51.757Z,9.40
2019-03-24T00:09:17.931Z,9.39
2019-03-24T00:11:44.187Z,9.40
2019-03-24T00:14:10.277Z,9.40
2019-03-24T00:16:36.557Z,9.36
2019-03-24T00:19:03.502Z,9.30
2019-03-24T00:21:30.113Z,9.23
2019-03-24T00:23:56.317Z,9.18
2019-03-24T00:26:23.516Z,9.13
2019-03-24T00:28:49.863Z,9.11
2019-03-24T00:31:15.958Z,9.11
2019-03-24T00:33:42.202Z,9.11
2019-03-24T00:36:08.293Z,9.11
2019-03-24T00:38:34.521Z,9.09
2019-03-24T00:41:00.638Z,9.07
2019-03-24T00:43:28.001Z,9.02
2019-03-24T00:45:54.110Z,9.02
2019-03-24T00:48:20.568Z,9.03
2019-03-24T00:50:46.721Z,9.00
2019-03-24T00:53:12.960Z,8.98
2019-03-24T00:55:39.078Z,9.00
2019-03-24T00:58:05.489Z,9.01
2019-03-24T01:00:43.685Z,9.05
2019-03-24T01:03:09.926Z,9.08
2019-03-24T01:05:36.117Z,9.08
2019-03-24T01:08:02.434Z,9.09
2019-03-24T01:10:28.564Z,9.12
2019-03-24T01:12:55.088Z,9.12
2019-03-24T01:15:21.216Z,9.11
2019-03-24T01:17:47.453Z,9.12
2019-03-24T01:20:13.763Z,9.12
2019-03-24T01:22:39.960Z,9.11
2019-03-24T01:25:06.436Z,9.10
2019-03-24T01:27:32.728Z,9.11
2019-03-24T01:29:59.005Z,9.08
2019-03-24T01:32:25.379Z,9.07
2019-03-24T01:34:51.530Z,9.04
2019-03-24T01:37:17.859Z,9.03
2019-03-24T01:39:44.062Z,9.03
2019-03-24T01:42:10.332Z,9.01
2019-03-24T01:44:36.491Z,9.02
2019-03-24T01:47:02.968Z,9.02
2019-03-24T01:49:29.420Z,9.02
2019-03-24T01:51:55.587Z,9.03
2019-03-24T01:54:21.969Z,9.03
2019-03-24T01:56:48.120Z,9.03
2019-03-24T01:59:15.312Z,9.03
2019-03-24T02:01:41.489Z,9.05
2019-03-24T02:04:07.740Z,9.05
2019-03-24T02:06:34.957Z,9.01
2019-03-24T02:09:01.104Z,8.99
2019-03-24T02:11:27.475Z,8.95
2019-03-24T02:13:53.628Z,8.98
2019-03-24T02:16:19.797Z,8.98
2019-03-24T02:18:45.974Z,8.98
2019-03-24T02:21:12.361Z,8.99
2019-03-24T02:23:38.586Z,8.99
2019-03-24T02:26:04.697Z,9.00
2019-03-24T02:28:30.951Z,8.99
2019-03-24T02:30:57.264Z,8.99
2019-03-24T02:33:23.578Z,8.98
2019-03-24T02:35:49.678Z,8.98
2019-03-24T02:38:15.891Z,8.98
2019-03-24T02:40:42.003Z,8.98
2019-03-24T02:43:08.189Z,8.99
2019-03-24T02:45:34.412Z,8.99
2019-03-24T02:48:00.589Z,9.01
2019-03-24T02:50:26.739Z,8.99
2019-03-24T02:52:53.150Z,9.00
2019-03-24T02:55:19.259Z,9.00
2019-03-24T02:57:45.456Z,8.99
2019-03-24T03:00:11.914Z,8.99
2019-03-24T03:02:38.183Z,8.99
2019-03-24T03:05:06.536Z,8.98
2019-03-24T03:07:32.853Z,8.98
2019-03-24T03:09:58.968Z,8.99
2019-03-24T03:12:25.286Z,8.98
2019-03-24T03:14:51.508Z,8.97
2019-03-24T03:17:18.732Z,8.96
2019-03-24T03:19:44.857Z,8.95
2019-03-24T03:22:11.072Z,8.92
2019-03-24T03:24:37.180Z,8.90
2019-03-24T03:27:03.705Z,8.89
2019-03-24T03:29:29.886Z,8.88
2019-03-24T03:31:56.099Z,8.87
2019-03-24T03:34:22.224Z,8.85
2019-03-24T03:36:48.445Z,8.85
2019-03-24T03:39:14.622Z,8.83
2019-03-24T03:41:41.027Z,8.82
2019-03-24T03:44:07.361Z,8.81
2019-03-24T03:46:33.634Z,8.80
2019-03-24T03:48:59.779Z,8.79
2019-03-24T03:51:26.051Z,8.78
2019-03-24T03:53:52.332Z,8.76
2019-03-24T03:56:18.584Z,8.74
2019-03-24T03:58:44.860Z,8.73
2019-03-24T04:01:11.227Z,8.74
2019-03-24T04:03:37.506Z,8.72
2019-03-24T04:06:03.946Z,8.72
2019-03-24T04:08:30.210Z,8.71
2019-03-24T04:10:56.453Z,8.68
2019-03-24T04:13:22.756Z,8.59
2019-03-24T04:15:49.209Z,8.55
2019-03-24T04:18:15.495Z,8.55
2019-03-24T04:20:41.853Z,8.51
2019-03-24T04:23:08.047Z,8.49
2019-03-24T04:25:34.205Z,8.50
2019-03-24T04:28:01.531Z,8.51
2019-03-24T04:30:27.757Z,8.52
2019-03-24T04:32:53.982Z,8.54
2019-03-24T04:35:20.145Z,8.55
2019-03-24T04:37:46.411Z,8.57
2019-03-24T04:40:12.624Z,8.57
2019-03-24T04:42:38.846Z,8.57
2019-03-24T04:45:05.511Z,8.58
2019-03-24T04:47:31.794Z,8.58
2019-03-24T04:49:58.003Z,8.58
2019-03-24T04:52:24.234Z,8.59
2019-03-24T04:54:50.411Z,8.59
2019-03-24T04:57:16.602Z,8.59
2019-03-24T04:59:42.882Z,8.57
2019-03-24T05:02:09.103Z,8.59
2019-03-24T05:04:35.290Z,8.59
2019-03-24T05:07:01.945Z,8.59
2019-03-24T05:09:28.782Z,8.58
2019-03-24T05:11:55.053Z,8.57
2019-03-24T05:14:21.224Z,8.56
2019-03-24T05:16:47.416Z,8.56
2019-03-24T05:19:13.533Z,8.53
2019-03-24T05:21:39.754Z,8.51
2019-03-24T05:24:05.991Z,8.49
2019-03-24T05:26:32.210Z,8.49
2019-03-24T05:28:58.311Z,8.49
2019-03-24T05:31:24.559Z,8.47
2019-03-24T05:33:50.680Z,8.47
2019-03-24T05:36:16.892Z,8.48
2019-03-24T05:38:43.115Z,8.47
2019-03-24T05:41:09.327Z,8.44
2019-03-24T05:43:35.425Z,8.42
2019-03-24T05:46:01.657Z,8.43
2019-03-24T05:48:27.762Z,8.39
2019-03-24T05:50:53.973Z,8.37
2019-03-24T05:53:20.149Z,8.38
2019-03-24T05:55:46.374Z,8.36
2019-03-24T05:58:12.540Z,8.36
2019-03-24T06:00:38.717Z,8.35
2019-03-24T06:03:04.921Z,8.34
2019-03-24T06:05:31.187Z,8.35
2019-03-24T06:07:57.469Z,8.38
2019-03-24T06:10:23.696Z,8.40
2019-03-24T06:12:49.810Z,8.41
2019-03-24T06:15:16.025Z,8.45
2019-03-24T06:17:47.862Z,8.48
2019-03-24T06:20:10.441Z,8.49
2019-03-24T06:22:36.540Z,8.41
2019-03-24T06:25:04.974Z,8.31
2019-03-24T06:27:31.136Z,8.31
2019-03-24T06:29:57.403Z,8.36
2019-03-24T06:32:23.632Z,8.49
2019-03-24T06:34:49.808Z,8.60
2019-03-24T06:37:16.074Z,8.67
2019-03-24T06:39:42.355Z,8.73
2019-03-24T06:42:08.595Z,8.79
2019-03-24T06:44:34.765Z,8.83
2019-03-24T06:47:00.991Z,8.87
2019-03-24T06:49:27.109Z,8.90
2019-03-24T06:51:53.491Z,8.93
2019-03-24T06:54:19.671Z,8.96
2019-03-24T06:56:45.893Z,9.00
2019-03-24T06:59:12.057Z,9.02
2019-03-24T07:01:38.349Z,9.02
2019-03-24T07:04:04.686Z,9.02
2019-03-24T07:06:30.938Z,9.02
2019-03-24T07:08:57.260Z,9.03
2019-03-24T07:11:23.361Z,9.08
2019-03-24T07:13:49.567Z,9.08
2019-03-24T07:16:15.785Z,9.11
2019-03-24T07:18:41.993Z,9.13
2019-03-24T07:21:08.216Z,9.11
2019-03-24T07:23:34.424Z,9.12
2019-03-24T07:26:00.815Z,9.17
2019-03-24T07:28:27.032Z,9.18
2019-03-24T07:30:53.363Z,9.22
2019-03-24T07:33:19.879Z,9.26
2019-03-24T07:35:46.195Z,9.31
2019-03-24T07:38:12.305Z,9.35
2019-03-24T07:40:38.510Z,9.38
2019-03-24T07:43:04.621Z,9.41
2019-03-24T07:45:31.042Z,9.43
2019-03-24T07:47:57.384Z,9.45
2019-03-24T07:50:23.652Z,9.48
2019-03-24T07:52:50.022Z,9.52
2019-03-24T07:55:16.408Z,9.55
2019-03-24T07:57:42.792Z,9.57
2019-03-24T08:00:10.641Z,9.61
2019-03-24T08:02:36.825Z,9.67
2019-03-24T08:05:04.509Z,9.72
2019-03-24T08:07:30.808Z,9.72
2019-03-24T08:09:57.174Z,9.78
2019-03-24T08:12:23.436Z,9.85
2019-03-24T08:14:49.717Z,9.91
2019-03-24T08:17:15.990Z,9.95
2019-03-24T08:19:42.115Z,10.00
2019-03-24T08:22:08.333Z,10.10
2019-03-24T08:24:34.570Z,10.11
2019-03-24T08:27:00.800Z,10.21
2019-03-24T08:29:26.909Z,10.25
2019-03-24T08:31:53.127Z,10.31
2019-03-24T08:34:19.282Z,10.28
2019-03-24T08:36:45.531Z,10.32
2019-03-24T08:39:11.878Z,10.38
2019-03-24T08:41:38.879Z,10.42
2019-03-24T08:44:05.218Z,10.55
2019-03-24T08:46:31.345Z,10.65
2019-03-24T08:48:57.547Z,10.65
2019-03-24T08:51:23.712Z,10.56
2019-03-24T08:53:49.962Z,10.48
2019-03-24T08:56:16.295Z,10.50
2019-03-24T08:58:42.406Z,10.56
2019-03-24T09:01:08.606Z,10.55
2019-03-24T09:03:34.764Z,10.55
2019-03-24T09:06:01.175Z,10.57
2019-03-24T09:08:27.389Z,10.58
2019-03-24T09:10:53.690Z,10.57
2019-03-24T09:13:19.841Z,10.63
2019-03-24T09:15:46.099Z,10.69
2019-03-24T09:18:12.377Z,10.74
2019-03-24T09:20:41.872Z,10.79
2019-03-24T09:23:06.600Z,10.75
2019-03-24T09:25:32.875Z,10.79
2019-03-24T09:27:59.098Z,10.65
2019-03-24T09:30:27.269Z,10.45
2019-03-24T09:32:55.116Z,10.57
2019-03-24T09:35:21.867Z,10.66
2019-03-24T09:37:48.023Z,10.63
2019-03-24T09:40:18.732Z,10.62
2019-03-24T09:42:45.035Z,10.58
2019-03-24T09:45:11.361Z,10.66
2019-03-24T09:47:37.643Z,10.74
2019-03-24T09:50:04.736Z,10.80
2019-03-24T09:52:30.995Z,10.79
2019-03-24T09:54:57.226Z,10.80
2019-03-24T09:57:23.398Z,10.80
2019-03-24T09:59:49.614Z,10.79
2019-03-24T10:02:15.794Z,10.78
2019-03-24T10:04:42.066Z,10.74
2019-03-24T10:07:08.356Z,10.72
2019-03-24T10:09:34.570Z,10.68
2019-03-24T10:12:00.674Z,10.65
2019-03-24T10:14:26.895Z,10.61
2019-03-24T10:16:53.005Z,10.54
2019-03-24T10:19:19.219Z,10.50
2019-03-24T10:21:45.379Z,10.47
2019-03-24T10:24:11.769Z,10.45
2019-03-24T10:26:37.948Z,10.45
2019-03-24T10:29:04.126Z,10.46
2019-03-24T10:31:30.406Z,10.47
2019-03-24T10:33:56.587Z,10.47
2019-03-24T10:36:22.813Z,10.48
2019-03-24T10:38:48.960Z,10.47
2019-03-24T10:41:15.196Z,10.47
2019-03-24T10:43:41.350Z,10.49
2019-03-24T10:46:07.582Z,10.48
2019-03-24T10:48:34.066Z,10.48
2019-03-24T10:51:00.401Z,10.48
2019-03-24T10:53:26.500Z,10.48
2019-03-24T10:55:52.808Z,10.44
2019-03-24T10:58:18.930Z,10.46
2019-03-24T11:00:45.414Z,10.47
2019-03-24T11:03:11.835Z,10.45
2019-03-24T11:05:39.056Z,10.44
2019-03-24T11:08:05.446Z,10.45
2019-03-24T11:10:31.814Z,10.38
2019-03-24T11:12:57.953Z,10.32
2019-03-24T11:15:24.139Z,10.28
2019-03-24T11:17:50.278Z,10.31
2019-03-24T11:20:16.580Z,10.34
2019-03-24T11:22:42.743Z,10.35
2019-03-24T11:25:09.521Z,10.35
2019-03-24T11:27:36.085Z,10.35
2019-03-24T11:30:03.543Z,10.36
2019-03-24T11:32:30.115Z,10.37
2019-03-24T11:34:56.340Z,10.36
2019-03-24T11:37:22.467Z,10.35
2019-03-24T11:39:48.686Z,10.34
2019-03-24T11:42:14.801Z,10.33
2019-03-24T11:44:41.080Z,10.33
2019-03-24T11:47:07.294Z,10.30
2019-03-24T11:49:33.464Z,10.31
2019-03-24T11:51:59.677Z,10.29
2019-03-24T11:54:25.849Z,10.31
2019-03-24T11:56:52.058Z,10.30
2019-03-24T11:59:18.181Z,10.32
2019-03-24T12:01:44.519Z,10.31
2019-03-24T12:04:10.806Z,10.32
2019-03-24T12:06:37.098Z,10.31
2019-03-24T12:09:04.963Z,10.30
2019-03-24T12:11:31.426Z,10.30
2019-03-24T12:13:57.705Z,10.30
2019-03-24T12:16:24.078Z,10.28
2019-03-24T12:18:50.394Z,10.26
2019-03-24T12:21:16.740Z,10.27
2019-03-24T12:23:42.967Z,10.27
2019-03-24T12:26:09.199Z,10.26
2019-03-24T12:28:35.387Z,10.26
2019-03-24T12:31:01.735Z,10.26
2019-03-24T12:33:27.885Z,10.28
2019-03-24T12:35:54.052Z,10.31
2019-03-24T12:38:20.242Z,10.32
2019-03-24T12:40:47.205Z,10.34
2019-03-24T12:43:19.537Z,10.35
2019-03-24T12:45:42.155Z,10.37
2019-03-24T12:48:08.518Z,10.38
2019-03-24T12:50:35.850Z,10.41
2019-03-24T12:53:02.206Z,10.43
2019-03-24T12:55:28.340Z,10.41
2019-03-24T12:57:54.650Z,10.36
2019-03-24T13:00:36.044Z,10.34
2019-03-24T13:03:02.845Z,10.32
2019-03-24T13:05:29.068Z,10.30
2019-03-24T13:07:58.804Z,10.31
2019-03-24T13:10:24.996Z,10.29
2019-03-24T13:12:51.113Z,10.23
2019-03-24T13:15:17.323Z,10.20
2019-03-24T13:17:43.448Z,10.17
2019-03-24T13:20:19.777Z,10.11
2019-03-24T13:22:38.202Z,10.05
2019-03-24T13:25:05.530Z,10.03
2019-03-24T13:27:31.644Z,10.02
2019-03-24T13:29:57.865Z,10.01
2019-03-24T13:32:23.977Z,10.05
2019-03-24T13:34:50.179Z,10.04
2019-03-24T13:37:16.495Z,10.04
2019-03-24T13:39:42.693Z,10.01
2019-03-24T13:42:08.972Z,10.03
2019-03-24T13:44:35.224Z,10.03
2019-03-24T13:47:01.498Z,10.01
2019-03-24T13:49:27.705Z,10.01
2019-03-24T13:51:53.837Z,10.00
2019-03-24T13:54:20.147Z,9.99
2019-03-24T13:56:46.246Z,9.98
2019-03-24T13:59:12.505Z,9.96
2019-03-24T14:01:38.771Z,9.91
2019-03-24T14:04:04.974Z,9.88
2019-03-24T14:06:31.095Z,9.86
2019-03-24T14:08:58.314Z,9.85
2019-03-24T14:11:24.525Z,9.84
2019-03-24T14:13:50.736Z,9.77
2019-03-24T14:16:17.063Z,9.71
2019-03-24T14:18:43.428Z,9.72
2019-03-24T14:21:09.812Z,9.72
2019-03-24T14:23:36.176Z,9.73
2019-03-24T14:26:02.705Z,9.69
2019-03-24T14:28:28.911Z,9.69
2019-03-24T14:30:55.231Z,9.68
2019-03-24T14:33:21.526Z,9.69
2019-03-24T14:35:47.731Z,9.69
2019-03-24T14:38:13.844Z,9.67
2019-03-24T14:40:40.195Z,9.61
2019-03-24T14:43:06.623Z,9.55
2019-03-24T14:45:32.952Z,9.51
2019-03-24T14:48:00.467Z,9.47
2019-03-24T14:50:26.677Z,9.40
2019-03-24T14:52:52.825Z,9.36
2019-03-24T14:55:19.057Z,9.33
2019-03-24T14:57:45.176Z,9.32
2019-03-24T15:00:11.826Z,9.31
2019-03-24T15:02:40.767Z,9.29
2019-03-24T15:05:06.772Z,9.29
2019-03-24T15:07:33.041Z,9.29
2019-03-24T15:09:59.214Z,9.26
2019-03-24T15:12:25.352Z,9.24
2019-03-24T15:14:51.671Z,9.24
2019-03-24T15:17:17.838Z,9.23
2019-03-24T15:19:44.024Z,9.22
2019-03-24T15:22:10.223Z,9.20
2019-03-24T15:24:36.467Z,9.18
2019-03-24T15:27:03.894Z,9.15
2019-03-24T15:29:31.884Z,9.13
2019-03-24T15:31:58.028Z,9.11
2019-03-24T15:34:24.424Z,9.13
2019-03-24T15:36:51.455Z,9.11
2019-03-24T15:39:18.654Z,9.11
2019-03-24T15:41:45.064Z,9.11
2019-03-24T15:44:11.347Z,9.09
2019-03-24T15:46:37.586Z,9.09
2019-03-24T15:49:03.824Z,9.07
2019-03-24T15:51:30.169Z,9.06
2019-03-24T15:53:56.659Z,9.06
2019-03-24T15:56:23.213Z,9.05
2019-03-24T15:58:49.444Z,9.03
2019-03-24T16:01:15.709Z,9.03
2019-03-24T16:03:41.982Z,9.02
2019-03-24T16:06:08.309Z,8.99
2019-03-24T16:08:34.444Z,8.98
2019-03-24T16:11:00.732Z,8.97
2019-03-24T16:13:27.115Z,8.95
2019-03-24T16:15:54.586Z,8.93
2019-03-24T16:18:20.890Z,8.92
2019-03-24T16:20:47.194Z,8.90
2019-03-24T16:23:13.596Z,8.88
2019-03-24T16:25:39.886Z,8.88
2019-03-24T16:28:06.314Z,8.87
2019-03-24T16:30:32.439Z,8.88
2019-03-24T16:32:58.747Z,8.80
2019-03-24T16:35:25.093Z,8.78
2019-03-24T16:37:51.358Z,8.77
2019-03-24T16:40:17.470Z,8.78
2019-03-24T16:42:43.766Z,8.78
2019-03-24T16:45:10.158Z,8.77
2019-03-24T16:47:36.390Z,8.73
2019-03-24T16:50:04.902Z,8.69
2019-03-24T16:52:31.146Z,8.65
2019-03-24T16:54:57.339Z,8.66
2019-03-24T16:57:24.742Z,8.67
2019-03-24T16:59:50.915Z,8.61
2019-03-24T17:02:17.301Z,8.55
2019-03-24T17:04:43.484Z,8.51
2019-03-24T17:07:09.852Z,8.47
2019-03-24T17:09:36.032Z,8.45
2019-03-24T17:12:04.756Z,8.43
2019-03-24T17:14:31.040Z,8.42
2019-03-24T17:16:58.175Z,8.36
2019-03-24T17:19:24.432Z,8.36
2019-03-24T17:21:50.706Z,8.30
2019-03-24T17:24:16.952Z,8.26
2019-03-24T17:26:43.299Z,8.27
2019-03-24T17:29:09.569Z,8.27
2019-03-24T17:31:38.190Z,8.24
2019-03-24T17:34:04.562Z,8.21
2019-03-24T17:36:30.831Z,8.17
2019-03-24T17:38:57.052Z,8.17
2019-03-24T17:41:23.362Z,8.15
2019-03-24T17:43:49.629Z,8.10
2019-03-24T17:46:16.323Z,8.09
2019-03-24T17:48:42.534Z,8.04
2019-03-24T17:51:08.841Z,7.98
2019-03-24T17:53:35.524Z,7.97
2019-03-24T17:56:02.468Z,7.99
2019-03-24T17:58:28.721Z,7.96
2019-03-24T18:00:56.690Z,7.95
2019-03-24T18:03:22.853Z,7.99
2019-03-24T18:05:50.120Z,7.98
2019-03-24T18:08:16.271Z,7.97
2019-03-24T18:10:42.503Z,7.94
2019-03-24T18:13:08.662Z,7.92
2019-03-24T18:15:35.097Z,7.88
2019-03-24T18:18:01.255Z,7.85
2019-03-24T18:20:31.372Z,7.85
2019-03-24T18:22:57.579Z,7.85
2019-03-24T18:25:23.981Z,7.80
2019-03-24T18:27:50.150Z,7.77
2019-03-24T18:30:16.763Z,7.73
2019-03-24T18:32:43.202Z,7.69
2019-03-24T18:35:09.959Z,7.67
2019-03-24T18:37:36.408Z,7.67
2019-03-24T18:40:05.572Z,7.69
2019-03-24T18:42:31.694Z,7.69
2019-03-24T18:44:58.060Z,7.67
2019-03-24T18:47:24.238Z,7.67
2019-03-24T18:49:50.533Z,7.68
2019-03-24T18:52:22.649Z,7.69
2019-03-24T18:54:44.831Z,7.67
2019-03-24T18:57:11.157Z,7.67
2019-03-24T18:59:37.416Z,7.65
2019-03-24T19:02:03.824Z,7.64
2019-03-24T19:04:30.038Z,7.63
2019-03-24T19:06:56.600Z,7.62
2019-03-24T19:09:22.873Z,7.59
2019-03-24T19:11:49.141Z,7.60
2019-03-24T19:14:17.056Z,7.60
2019-03-24T19:16:43.179Z,7.60
2019-03-24T19:19:09.505Z,7.61
2019-03-24T19:21:35.919Z,7.60
2019-03-24T19:24:02.226Z,7.58
2019-03-24T19:26:28.431Z,7.56
2019-03-24T19:28:54.636Z,7.57
2019-03-24T19:31:20.882Z,7.57
2019-03-24T19:33:47.102Z,7.57
2019-03-24T19:36:13.420Z,7.53
2019-03-24T19:38:40.517Z,7.52
2019-03-24T19:41:06.772Z,7.48
2019-03-24T19:43:33.047Z,7.47
2019-03-24T19:45:59.309Z,7.49
2019-03-24T19:48:26.519Z,7.46
2019-03-24T19:50:52.706Z,7.47
2019-03-24T19:53:18.982Z,7.48
2019-03-24T19:55:45.315Z,7.44
2019-03-24T19:58:11.475Z,7.44
2019-03-24T20:00:37.681Z,7.39
2019-03-24T20:03:04.097Z,7.35
2019-03-24T20:05:30.309Z,7.33
2019-03-24T20:07:56.662Z,7.29
2019-03-24T20:10:22.976Z,7.28
2019-03-24T20:12:49.145Z,7.24
2019-03-24T20:15:15.690Z,7.21
2019-03-24T20:17:42.017Z,7.18
2019-03-24T20:20:08.813Z,7.12
2019-03-24T20:22:35.030Z,7.10
2019-03-24T20:25:01.127Z,7.08
2019-03-24T20:27:27.529Z,7.06
2019-03-24T20:29:53.651Z,7.08
2019-03-24T20:32:19.857Z,7.06
2019-03-24T20:34:46.160Z,7.07
2019-03-24T20:37:12.375Z,7.05
2019-03-24T20:39:38.518Z,7.00
2019-03-24T20:42:04.904Z,7.02
2019-03-24T20:44:31.175Z,7.03
2019-03-24T20:46:57.443Z,7.02
2019-03-24T20:49:23.711Z,7.02
2019-03-24T20:51:49.941Z,7.00
2019-03-24T20:54:16.108Z,6.94
2019-03-24T20:56:42.351Z,6.91
2019-03-24T20:59:08.646Z,6.91
2019-03-24T21:01:35.224Z,6.91
2019-03-24T21:04:01.463Z,6.90
2019-03-24T21:06:27.674Z,6.87
2019-03-24T21:08:53.910Z,6.86
2019-03-24T21:11:20.498Z,6.85
2019-03-24T21:13:46.795Z,6.84
2019-03-24T21:16:13.158Z,6.82
2019-03-24T21:18:39.486Z,6.80
2019-03-24T21:21:05.673Z,6.80
2019-03-24T21:23:31.915Z,6.79
2019-03-24T21:25:58.047Z,6.78
2019-03-24T21:28:25.482Z,6.77
2019-03-24T21:30:51.646Z,6.77
2019-03-24T21:33:17.959Z,6.74
2019-03-24T21:35:44.350Z,6.71
2019-03-24T21:38:10.512Z,6.70
2019-03-24T21:40:36.809Z,6.69
2019-03-24T21:43:03.415Z,6.70
2019-03-24T21:45:29.805Z,6.70
2019-03-24T21:47:56.512Z,6.69
2019-03-24T21:50:22.971Z,6.66
2019-03-24T21:52:49.344Z,6.64
2019-03-24T21:55:15.431Z,6.62
2019-03-24T21:57:41.746Z,6.62
2019-03-24T22:00:08.751Z,6.61
2019-03-24T22:02:35.198Z,6.60
2019-03-24T22:05:01.618Z,6.59
2019-03-24T22:07:28.938Z,6.58
2019-03-24T22:09:55.090Z,6.53
2019-03-24T22:12:21.266Z,6.52
2019-03-24T22:14:47.528Z,6.45
2019-03-24T22:17:13.753Z,6.45
2019-03-24T22:19:39.878Z,6.38
2019-03-24T22:22:06.182Z,6.34
2019-03-24T22:24:32.428Z,6.31
2019-03-24T22:26:58.744Z,6.27
2019-03-24T22:29:24.959Z,6.28
2019-03-24T22:31:51.080Z,6.30
2019-03-24T22:34:17.348Z,6.29
2019-03-24T22:36:43.503Z,6.30
2019-03-24T22:39:09.676Z,6.28
2019-03-24T22:41:35.960Z,6.28
2019-03-24T22:44:02.813Z,6.25
2019-03-24T22:46:28.977Z,6.28
2019-03-24T22:48:55.239Z,6.27
2019-03-24T22:51:21.600Z,6.27
2019-03-24T22:53:47.881Z,6.25
2019-03-24T22:56:14.152Z,6.21
2019-03-24T22:58:40.468Z,6.18
2019-03-24T23:01:06.777Z,6.16
2019-03-24T23:03:34.908Z,6.16
2019-03-24T23:06:01.192Z,6.16
2019-03-24T23:08:27.439Z,6.12
2019-03-24T23:10:53.741Z,6.10
2019-03-24T23:13:19.851Z,6.10
2019-03-24T23:15:46.083Z,6.10
2019-03-24T23:18:12.197Z,6.11
2019-03-24T23:20:38.426Z,6.09
2019-03-24T23:23:04.590Z,6.10
2019-03-24T23:25:30.763Z,6.12
2019-03-24T23:27:57.260Z,6.11
2019-03-24T23:30:23.438Z,6.15
2019-03-24T23:32:49.792Z,6.13
2019-03-24T23:35:16.061Z,6.12
2019-03-24T23:37:42.247Z,6.09
2019-03-24T23:40:08.793Z,6.07
2019-03-24T23:42:35.024Z,6.05
2019-03-24T23:45:01.134Z,6.01
2019-03-24T23:47:27.315Z,5.97
2019-03-24T23:49:53.473Z,5.93
2019-03-24T23:52:19.672Z,5.92
2019-03-24T23:54:45.919Z,5.90
2019-03-24T23:57:12.100Z,5.91
2019-03-24T23:59:38.331Z,5.91
